Knightsen, California
Current Conditions -  °F | °C
As of 1:53 AM on Saturday 22 Nov 2014 (Local Time) from KLVK Reporting Station
Overcast Overcast  
Wind Chill: 59°   Ceiling: 3200
Heat Index: 59°   Visibility: 10mi
Dew Point: 51°   Wind: 0mph
Humidity: 75%   Direction: NA
Pressure: 30.11"   Gusts: NA
Location:  37.97°N, 121.67°W
Report Text: KLVK 220953Z AUTO 00000KT 10SM OVC032 15/11 A3011 RMK AO2 SLP194 T01500106
Loading
Personal Weather Stations






























Interactive Weather Map New forecast layout! Learn more

10-Day Weather Forecast

Advertisements
Track Severe Weather on mobile